sensor_id;sensor_type;location;lat;lon;timestamp;temperature;humidity
66752;SHT31;53663;42.676;23.238;2024-02-23T00:02:23;5.33;69.00
66752;SHT31;53663;42.676;23.238;2024-02-23T00:04:48;5.40;69.08
66752;SHT31;53663;42.676;23.238;2024-02-23T00:07:14;5.44;69.01
66752;SHT31;53663;42.676;23.238;2024-02-23T00:09:39;5.39;68.93
66752;SHT31;53663;42.676;23.238;2024-02-23T00:12:05;5.30;68.84
66752;SHT31;53663;42.676;23.238;2024-02-23T00:14:30;5.37;68.86
66752;SHT31;53663;42.676;23.238;2024-02-23T00:17:01;5.41;68.34
66752;SHT31;53663;42.676;23.238;2024-02-23T00:19:27;5.40;68.23
66752;SHT31;53663;42.676;23.238;2024-02-23T00:21:52;5.43;68.20
66752;SHT31;53663;42.676;23.238;2024-02-23T00:24:18;5.41;68.43
66752;SHT31;53663;42.676;23.238;2024-02-23T00:26:46;5.33;69.02
66752;SHT31;53663;42.676;23.238;2024-02-23T00:29:11;5.36;69.34
66752;SHT31;53663;42.676;23.238;2024-02-23T00:31:40;5.13;69.86
66752;SHT31;53663;42.676;23.238;2024-02-23T00:34:06;5.18;69.93
66752;SHT31;53663;42.676;23.238;2024-02-23T00:36:36;5.30;69.53
66752;SHT31;53663;42.676;23.238;2024-02-23T00:39:01;5.37;69.54
66752;SHT31;53663;42.676;23.238;2024-02-23T00:41:27;5.39;69.84
66752;SHT31;53663;42.676;23.238;2024-02-23T00:43:53;5.18;69.99
66752;SHT31;53663;42.676;23.238;2024-02-23T00:46:18;5.27;69.58
66752;SHT31;53663;42.676;23.238;2024-02-23T00:48:43;5.34;69.59
66752;SHT31;53663;42.676;23.238;2024-02-23T00:51:09;5.31;69.49
66752;SHT31;53663;42.676;23.238;2024-02-23T00:53:34;5.16;69.94
66752;SHT31;53663;42.676;23.238;2024-02-23T00:56:00;5.10;70.57
66752;SHT31;53663;42.676;23.238;2024-02-23T00:58:25;5.05;70.99
66752;SHT31;53663;42.676;23.238;2024-02-23T01:00:51;5.02;70.79
66752;SHT31;53663;42.676;23.238;2024-02-23T01:03:16;5.06;70.40
66752;SHT31;53663;42.676;23.238;2024-02-23T01:05:41;4.73;71.67
66752;SHT31;53663;42.676;23.238;2024-02-23T01:08:07;4.86;70.92
66752;SHT31;53663;42.676;23.238;2024-02-23T01:10:33;4.92;71.35
66752;SHT31;53663;42.676;23.238;2024-02-23T01:12:58;4.95;71.07
66752;SHT31;53663;42.676;23.238;2024-02-23T01:15:24;4.97;71.16
66752;SHT31;53663;42.676;23.238;2024-02-23T01:17:49;4.93;71.12
66752;SHT31;53663;42.676;23.238;2024-02-23T01:20:14;4.85;71.30
66752;SHT31;53663;42.676;23.238;2024-02-23T01:22:40;4.92;71.27
66752;SHT31;53663;42.676;23.238;2024-02-23T01:25:05;5.03;70.32
66752;SHT31;53663;42.676;23.238;2024-02-23T01:27:31;4.96;70.81
66752;SHT31;53663;42.676;23.238;2024-02-23T01:29:56;4.89;70.84
66752;SHT31;53663;42.676;23.238;2024-02-23T01:32:22;4.89;71.06
66752;SHT31;53663;42.676;23.238;2024-02-23T01:34:47;4.95;70.82
66752;SHT31;53663;42.676;23.238;2024-02-23T01:37:13;4.81;71.03
66752;SHT31;53663;42.676;23.238;2024-02-23T01:39:38;4.83;71.14
66752;SHT31;53663;42.676;23.238;2024-02-23T01:42:04;4.72;71.79
66752;SHT31;53663;42.676;23.238;2024-02-23T01:44:29;4.72;71.87
66752;SHT31;53663;42.676;23.238;2024-02-23T01:46:55;4.85;71.62
66752;SHT31;53663;42.676;23.238;2024-02-23T01:49:20;4.82;71.96
66752;SHT31;53663;42.676;23.238;2024-02-23T01:51:47;4.82;71.87
66752;SHT31;53663;42.676;23.238;2024-02-23T01:54:13;4.83;71.56
66752;SHT31;53663;42.676;23.238;2024-02-23T01:56:39;4.96;71.37
66752;SHT31;53663;42.676;23.238;2024-02-23T01:59:05;4.73;71.87
66752;SHT31;53663;42.676;23.238;2024-02-23T02:01:31;4.54;72.54
66752;SHT31;53663;42.676;23.238;2024-02-23T02:03:56;4.58;72.42
66752;SHT31;53663;42.676;23.238;2024-02-23T02:06:22;4.48;72.79
66752;SHT31;53663;42.676;23.238;2024-02-23T02:08:48;4.61;72.54
66752;SHT31;53663;42.676;23.238;2024-02-23T02:11:14;4.65;72.16
66752;SHT31;53663;42.676;23.238;2024-02-23T02:13:40;4.76;71.62
66752;SHT31;53663;42.676;23.238;2024-02-23T02:16:05;4.73;71.57
66752;SHT31;53663;42.676;23.238;2024-02-23T02:18:31;4.83;71.21
66752;SHT31;53663;42.676;23.238;2024-02-23T02:20:56;4.69;71.51
66752;SHT31;53663;42.676;23.238;2024-02-23T02:23:22;4.78;71.71
66752;SHT31;53663;42.676;23.238;2024-02-23T02:25:57;4.71;71.11
66752;SHT31;53663;42.676;23.238;2024-02-23T02:28:23;4.73;71.35
66752;SHT31;53663;42.676;23.238;2024-02-23T02:30:49;4.73;71.47
66752;SHT31;53663;42.676;23.238;2024-02-23T02:33:15;4.58;72.09
66752;SHT31;53663;42.676;23.238;2024-02-23T02:35:40;4.41;72.33
66752;SHT31;53663;42.676;23.238;2024-02-23T02:38:05;4.36;72.61
66752;SHT31;53663;42.676;23.238;2024-02-23T02:40:31;4.43;72.44
66752;SHT31;53663;42.676;23.238;2024-02-23T02:42:57;4.40;72.75
66752;SHT31;53663;42.676;23.238;2024-02-23T02:45:22;4.48;72.43
66752;SHT31;53663;42.676;23.238;2024-02-23T02:47:48;4.44;72.52
66752;SHT31;53663;42.676;23.238;2024-02-23T02:50:13;4.43;72.86
66752;SHT31;53663;42.676;23.238;2024-02-23T02:52:39;4.50;72.64
66752;SHT31;53663;42.676;23.238;2024-02-23T02:55:04;4.45;72.79
66752;SHT31;53663;42.676;23.238;2024-02-23T02:57:30;4.50;72.54
66752;SHT31;53663;42.676;23.238;2024-02-23T02:59:55;4.57;72.06
66752;SHT31;53663;42.676;23.238;2024-02-23T03:02:21;4.50;72.47
66752;SHT31;53663;42.676;23.238;2024-02-23T03:04:47;4.40;72.90
66752;SHT31;53663;42.676;23.238;2024-02-23T03:07:12;4.50;72.65
66752;SHT31;53663;42.676;23.238;2024-02-23T03:09:38;4.60;72.29
66752;SHT31;53663;42.676;23.238;2024-02-23T03:12:03;4.81;71.41
66752;SHT31;53663;42.676;23.238;2024-02-23T03:14:28;4.81;71.68
66752;SHT31;53663;42.676;23.238;2024-02-23T03:16:54;4.81;71.64
66752;SHT31;53663;42.676;23.238;2024-02-23T03:19:19;4.81;71.69
66752;SHT31;53663;42.676;23.238;2024-02-23T03:21:47;4.79;71.88
66752;SHT31;53663;42.676;23.238;2024-02-23T03:24:13;4.72;72.61
66752;SHT31;53663;42.676;23.238;2024-02-23T03:26:38;4.62;72.78
66752;SHT31;53663;42.676;23.238;2024-02-23T03:29:03;4.41;73.32
66752;SHT31;53663;42.676;23.238;2024-02-23T03:31:29;4.50;73.05
66752;SHT31;53663;42.676;23.238;2024-02-23T03:33:54;4.44;73.06
66752;SHT31;53663;42.676;23.238;2024-02-23T03:36:20;4.52;72.96
66752;SHT31;53663;42.676;23.238;2024-02-23T03:38:46;4.64;73.00
66752;SHT31;53663;42.676;23.238;2024-02-23T03:41:12;4.52;73.26
66752;SHT31;53663;42.676;23.238;2024-02-23T03:43:37;4.50;73.45
66752;SHT31;53663;42.676;23.238;2024-02-23T03:46:03;4.55;73.42
66752;SHT31;53663;42.676;23.238;2024-02-23T03:48:29;4.51;73.84
66752;SHT31;53663;42.676;23.238;2024-02-23T03:50:54;4.45;73.96
66752;SHT31;53663;42.676;23.238;2024-02-23T03:53:19;4.54;73.73
66752;SHT31;53663;42.676;23.238;2024-02-23T03:55:45;4.64;73.40
66752;SHT31;53663;42.676;23.238;2024-02-23T03:58:10;4.34;74.32
66752;SHT31;53663;42.676;23.238;2024-02-23T04:00:36;4.45;74.03
66752;SHT31;53663;42.676;23.238;2024-02-23T04:03:01;4.41;74.01
66752;SHT31;53663;42.676;23.238;2024-02-23T04:05:26;4.33;74.41
66752;SHT31;53663;42.676;23.238;2024-02-23T04:07:52;4.40;74.34
66752;SHT31;53663;42.676;23.238;2024-02-23T04:10:17;4.58;73.72
66752;SHT31;53663;42.676;23.238;2024-02-23T04:12:46;4.45;73.82
66752;SHT31;53663;42.676;23.238;2024-02-23T04:15:11;4.52;73.80
66752;SHT31;53663;42.676;23.238;2024-02-23T04:17:37;4.34;74.31
66752;SHT31;53663;42.676;23.238;2024-02-23T04:20:05;4.45;74.01
66752;SHT31;53663;42.676;23.238;2024-02-23T04:22:31;4.27;74.86
66752;SHT31;53663;42.676;23.238;2024-02-23T04:24:56;3.96;75.94
66752;SHT31;53663;42.676;23.238;2024-02-23T04:27:22;4.04;75.62
66752;SHT31;53663;42.676;23.238;2024-02-23T04:29:47;4.10;75.39
66752;SHT31;53663;42.676;23.238;2024-02-23T04:32:13;4.04;75.80
66752;SHT31;53663;42.676;23.238;2024-02-23T04:34:38;3.87;76.34
66752;SHT31;53663;42.676;23.238;2024-02-23T04:37:05;3.97;76.22
66752;SHT31;53663;42.676;23.238;2024-02-23T04:39:31;4.03;75.88
66752;SHT31;53663;42.676;23.238;2024-02-23T04:41:56;4.03;75.68
66752;SHT31;53663;42.676;23.238;2024-02-23T04:44:22;3.86;76.41
66752;SHT31;53663;42.676;23.238;2024-02-23T04:46:48;3.92;76.25
66752;SHT31;53663;42.676;23.238;2024-02-23T04:49:13;3.89;76.23
66752;SHT31;53663;42.676;23.238;2024-02-23T04:51:39;3.65;77.23
66752;SHT31;53663;42.676;23.238;2024-02-23T04:54:04;3.71;76.96
66752;SHT31;53663;42.676;23.238;2024-02-23T04:56:29;3.75;76.51
66752;SHT31;53663;42.676;23.238;2024-02-23T04:58:55;3.65;76.69
66752;SHT31;53663;42.676;23.238;2024-02-23T05:01:20;3.68;76.99
66752;SHT31;53663;42.676;23.238;2024-02-23T05:03:46;3.79;76.49
66752;SHT31;53663;42.676;23.238;2024-02-23T05:06:11;3.81;76.19
66752;SHT31;53663;42.676;23.238;2024-02-23T05:08:38;3.74;76.37
66752;SHT31;53663;42.676;23.238;2024-02-23T05:11:03;3.65;77.07
66752;SHT31;53663;42.676;23.238;2024-02-23T05:13:29;3.66;77.04
66752;SHT31;53663;42.676;23.238;2024-02-23T05:15:55;3.75;76.66
66752;SHT31;53663;42.676;23.238;2024-02-23T05:18:21;3.74;76.75
66752;SHT31;53663;42.676;23.238;2024-02-23T05:20:46;3.55;77.36
66752;SHT31;53663;42.676;23.238;2024-02-23T05:23:11;3.64;77.19
66752;SHT31;53663;42.676;23.238;2024-02-23T05:25:37;3.66;77.07
66752;SHT31;53663;42.676;23.238;2024-02-23T05:28:02;3.82;76.59
66752;SHT31;53663;42.676;23.238;2024-02-23T05:30:28;3.83;76.39
66752;SHT31;53663;42.676;23.238;2024-02-23T05:32:56;3.99;75.92
66752;SHT31;53663;42.676;23.238;2024-02-23T05:35:22;4.10;75.51
66752;SHT31;53663;42.676;23.238;2024-02-23T05:37:47;4.09;75.43
66752;SHT31;53663;42.676;23.238;2024-02-23T05:40:15;3.94;76.04
66752;SHT31;53663;42.676;23.238;2024-02-23T05:42:40;4.16;75.74
66752;SHT31;53663;42.676;23.238;2024-02-23T05:45:09;4.09;75.53
66752;SHT31;53663;42.676;23.238;2024-02-23T05:47:35;4.57;74.61
66752;SHT31;53663;42.676;23.238;2024-02-23T05:50:01;5.12;72.39
66752;SHT31;53663;42.676;23.238;2024-02-23T05:52:27;5.48;71.01
66752;SHT31;53663;42.676;23.238;2024-02-23T05:54:52;6.08;71.06
66752;SHT31;53663;42.676;23.238;2024-02-23T05:57:21;7.87;64.43
66752;SHT31;53663;42.676;23.238;2024-02-23T05:59:46;8.73;61.11
66752;SHT31;53663;42.676;23.238;2024-02-23T06:02:12;10.42;57.37
66752;SHT31;53663;42.676;23.238;2024-02-23T06:04:37;11.63;51.54
66752;SHT31;53663;42.676;23.238;2024-02-23T06:07:03;10.80;52.55
66752;SHT31;53663;42.676;23.238;2024-02-23T06:09:28;11.45;52.47
66752;SHT31;53663;42.676;23.238;2024-02-23T06:11:54;12.78;47.04
66752;SHT31;53663;42.676;23.238;2024-02-23T06:14:19;13.87;46.05
66752;SHT31;53663;42.676;23.238;2024-02-23T06:16:44;15.02;43.03
66752;SHT31;53663;42.676;23.238;2024-02-23T06:19:10;14.71;41.93
66752;SHT31;53663;42.676;23.238;2024-02-23T06:21:35;13.69;45.26
66752;SHT31;53663;42.676;23.238;2024-02-23T06:24:01;16.21;40.80
66752;SHT31;53663;42.676;23.238;2024-02-23T06:26:27;16.72;37.61
66752;SHT31;53663;42.676;23.238;2024-02-23T06:28:53;16.89;36.97
66752;SHT31;53663;42.676;23.238;2024-02-23T06:31:18;17.27;37.39
66752;SHT31;53663;42.676;23.238;2024-02-23T06:33:44;17.70;35.31
66752;SHT31;53663;42.676;23.238;2024-02-23T06:36:14;16.94;38.31
66752;SHT31;53663;42.676;23.238;2024-02-23T06:38:39;19.41;34.30
66752;SHT31;53663;42.676;23.238;2024-02-23T06:41:04;20.20;31.88
66752;SHT31;53663;42.676;23.238;2024-02-23T06:43:30;17.88;36.18
66752;SHT31;53663;42.676;23.238;2024-02-23T06:45:56;19.75;32.10
66752;SHT31;53663;42.676;23.238;2024-02-23T06:48:23;17.83;35.55
66752;SHT31;53663;42.676;23.238;2024-02-23T06:50:49;20.54;31.34
66752;SHT31;53663;42.676;23.238;2024-02-23T06:53:14;19.34;32.69
66752;SHT31;53663;42.676;23.238;2024-02-23T06:55:40;17.71;35.33
66752;SHT31;53663;42.676;23.238;2024-02-23T06:58:06;19.65;32.80
66752;SHT31;53663;42.676;23.238;2024-02-23T07:00:32;21.78;30.17
66752;SHT31;53663;42.676;23.238;2024-02-23T07:02:58;23.80;27.26
66752;SHT31;53663;42.676;23.238;2024-02-23T07:05:24;22.33;27.98
66752;SHT31;53663;42.676;23.238;2024-02-23T07:07:49;20.24;31.17
66752;SHT31;53663;42.676;23.238;2024-02-23T07:10:15;19.94;31.85
66752;SHT31;53663;42.676;23.238;2024-02-23T07:12:43;21.14;30.33
66752;SHT31;53663;42.676;23.238;2024-02-23T07:15:09;21.02;30.48
66752;SHT31;53663;42.676;23.238;2024-02-23T07:17:35;19.52;31.93
66752;SHT31;53663;42.676;23.238;2024-02-23T07:20:00;20.67;31.10
66752;SHT31;53663;42.676;23.238;2024-02-23T07:22:31;21.37;29.82
66752;SHT31;53663;42.676;23.238;2024-02-23T07:24:57;19.68;32.70
66752;SHT31;53663;42.676;23.238;2024-02-23T07:27:22;20.76;30.88
66752;SHT31;53663;42.676;23.238;2024-02-23T07:29:48;21.55;29.88
66752;SHT31;53663;42.676;23.238;2024-02-23T07:32:14;23.56;26.73
66752;SHT31;53663;42.676;23.238;2024-02-23T07:34:39;23.12;27.35
66752;SHT31;53663;42.676;23.238;2024-02-23T07:37:05;23.70;26.92
66752;SHT31;53663;42.676;23.238;2024-02-23T07:39:30;24.20;26.43
66752;SHT31;53663;42.676;23.238;2024-02-23T07:41:56;21.99;28.56
66752;SHT31;53663;42.676;23.238;2024-02-23T07:44:21;22.19;29.61
66752;SHT31;53663;42.676;23.238;2024-02-23T07:46:47;22.19;28.21
66752;SHT31;53663;42.676;23.238;2024-02-23T07:49:12;21.46;30.05
66752;SHT31;53663;42.676;23.238;2024-02-23T07:51:38;24.25;26.61
66752;SHT31;53663;42.676;23.238;2024-02-23T07:54:03;22.37;29.32
66752;SHT31;53663;42.676;23.238;2024-02-23T07:56:28;21.67;29.72
66752;SHT31;53663;42.676;23.238;2024-02-23T07:58:54;24.13;26.94
66752;SHT31;53663;42.676;23.238;2024-02-23T08:01:20;24.00;26.93
66752;SHT31;53663;42.676;23.238;2024-02-23T08:03:45;25.06;25.82
66752;SHT31;53663;42.676;23.238;2024-02-23T08:06:11;26.08;24.44
66752;SHT31;53663;42.676;23.238;2024-02-23T08:08:38;27.18;23.75
66752;SHT31;53663;42.676;23.238;2024-02-23T08:11:03;27.74;23.34
66752;SHT31;53663;42.676;23.238;2024-02-23T08:13:29;28.75;22.09
66752;SHT31;53663;42.676;23.238;2024-02-23T08:15:54;29.06;22.19
66752;SHT31;53663;42.676;23.238;2024-02-23T08:18:20;30.12;20.97
66752;SHT31;53663;42.676;23.238;2024-02-23T08:20:47;30.23;20.81
66752;SHT31;53663;42.676;23.238;2024-02-23T08:23:13;30.53;20.89
66752;SHT31;53663;42.676;23.238;2024-02-23T08:25:38;31.96;19.78
66752;SHT31;53663;42.676;23.238;2024-02-23T08:28:04;31.52;19.92
66752;SHT31;53663;42.676;23.238;2024-02-23T08:30:29;29.92;20.51
66752;SHT31;53663;42.676;23.238;2024-02-23T08:32:55;28.48;22.73
66752;SHT31;53663;42.676;23.238;2024-02-23T08:35:20;30.85;20.80
66752;SHT31;53663;42.676;23.238;2024-02-23T08:37:45;32.27;19.07
66752;SHT31;53663;42.676;23.238;2024-02-23T08:40:11;33.02;18.92
66752;SHT31;53663;42.676;23.238;2024-02-23T08:42:37;33.13;18.49
66752;SHT31;53663;42.676;23.238;2024-02-23T08:45:02;33.92;17.79
66752;SHT31;53663;42.676;23.238;2024-02-23T08:47:28;34.01;17.46
66752;SHT31;53663;42.676;23.238;2024-02-23T08:49:57;32.86;18.45
66752;SHT31;53663;42.676;23.238;2024-02-23T08:52:22;32.65;19.27
66752;SHT31;53663;42.676;23.238;2024-02-23T08:54:48;32.96;18.14
66752;SHT31;53663;42.676;23.238;2024-02-23T08:57:13;33.47;19.09
66752;SHT31;53663;42.676;23.238;2024-02-23T08:59:42;33.26;18.72
66752;SHT31;53663;42.676;23.238;2024-02-23T09:02:08;33.27;18.92
66752;SHT31;53663;42.676;23.238;2024-02-23T09:04:35;34.13;18.10
66752;SHT31;53663;42.676;23.238;2024-02-23T09:07:04;34.31;17.67
66752;SHT31;53663;42.676;23.238;2024-02-23T09:09:30;32.78;18.43
66752;SHT31;53663;42.676;23.238;2024-02-23T09:11:56;33.33;19.23
66752;SHT31;53663;42.676;23.238;2024-02-23T09:14:21;34.26;17.68
66752;SHT31;53663;42.676;23.238;2024-02-23T09:16:47;33.15;18.41
66752;SHT31;53663;42.676;23.238;2024-02-23T09:19:16;30.95;20.52
66752;SHT31;53663;42.676;23.238;2024-02-23T09:21:41;29.12;21.81
66752;SHT31;53663;42.676;23.238;2024-02-23T09:24:06;30.55;20.97
66752;SHT31;53663;42.676;23.238;2024-02-23T09:26:32;33.29;18.22
66752;SHT31;53663;42.676;23.238;2024-02-23T09:28:57;30.80;20.54
66752;SHT31;53663;42.676;23.238;2024-02-23T09:31:23;32.11;19.04
66752;SHT31;53663;42.676;23.238;2024-02-23T09:33:48;31.84;19.26
66752;SHT31;53663;42.676;23.238;2024-02-23T09:36:16;27.24;23.04
66752;SHT31;53663;42.676;23.238;2024-02-23T09:38:42;26.40;24.54
66752;SHT31;53663;42.676;23.238;2024-02-23T09:41:19;24.64;26.49
66752;SHT31;53663;42.676;23.238;2024-02-23T09:43:44;25.50;27.03
66752;SHT31;53663;42.676;23.238;2024-02-23T09:46:11;27.01;25.48
66752;SHT31;53663;42.676;23.238;2024-02-23T09:48:37;28.43;22.45
66752;SHT31;53663;42.676;23.238;2024-02-23T09:51:03;28.80;21.81
66752;SHT31;53663;42.676;23.238;2024-02-23T09:53:29;29.74;21.22
66752;SHT31;53663;42.676;23.238;2024-02-23T09:55:55;30.47;21.20
66752;SHT31;53663;42.676;23.238;2024-02-23T09:58:22;32.61;19.17
66752;SHT31;53663;42.676;23.238;2024-02-23T10:00:48;35.27;18.05
66752;SHT31;53663;42.676;23.238;2024-02-23T10:03:13;36.00;16.97
66752;SHT31;53663;42.676;23.238;2024-02-23T10:05:39;37.62;15.41
66752;SHT31;53663;42.676;23.238;2024-02-23T10:08:04;34.60;16.92
66752;SHT31;53663;42.676;23.238;2024-02-23T10:10:30;29.09;20.98
66752;SHT31;53663;42.676;23.238;2024-02-23T10:12:57;30.12;21.05
66752;SHT31;53663;42.676;23.238;2024-02-23T10:15:22;31.96;18.79
66752;SHT31;53663;42.676;23.238;2024-02-23T10:17:47;32.00;19.67
66752;SHT31;53663;42.676;23.238;2024-02-23T10:20:13;32.89;18.98
66752;SHT31;53663;42.676;23.238;2024-02-23T10:22:39;28.71;21.46
66752;SHT31;53663;42.676;23.238;2024-02-23T10:25:04;25.60;24.82
66752;SHT31;53663;42.676;23.238;2024-02-23T10:27:30;26.16;24.69
66752;SHT31;53663;42.676;23.238;2024-02-23T10:29:55;27.42;23.51
66752;SHT31;53663;42.676;23.238;2024-02-23T10:32:21;30.41;20.93
66752;SHT31;53663;42.676;23.238;2024-02-23T10:34:49;27.49;23.11
66752;SHT31;53663;42.676;23.238;2024-02-23T10:37:16;27.07;23.64
66752;SHT31;53663;42.676;23.238;2024-02-23T10:39:41;26.36;24.07
66752;SHT31;53663;42.676;23.238;2024-02-23T10:42:08;25.10;25.17
66752;SHT31;53663;42.676;23.238;2024-02-23T10:44:34;23.28;27.01
66752;SHT31;53663;42.676;23.238;2024-02-23T10:46:59;24.68;26.81
66752;SHT31;53663;42.676;23.238;2024-02-23T10:49:25;25.74;25.50
66752;SHT31;53663;42.676;23.238;2024-02-23T10:51:51;25.02;26.28
66752;SHT31;53663;42.676;23.238;2024-02-23T10:54:18;22.90;28.47
66752;SHT31;53663;42.676;23.238;2024-02-23T10:56:46;23.48;28.28
66752;SHT31;53663;42.676;23.238;2024-02-23T10:59:12;23.15;28.28
66752;SHT31;53663;42.676;23.238;2024-02-23T11:01:37;22.94;28.60
66752;SHT31;53663;42.676;23.238;2024-02-23T11:04:04;23.42;27.46
66752;SHT31;53663;42.676;23.238;2024-02-23T11:06:32;22.47;28.76
66752;SHT31;53663;42.676;23.238;2024-02-23T11:09:05;22.10;29.31
66752;SHT31;53663;42.676;23.238;2024-02-23T11:11:32;21.50;30.31
66752;SHT31;53663;42.676;23.238;2024-02-23T11:13:58;21.47;31.01
66752;SHT31;53663;42.676;23.238;2024-02-23T11:16:28;20.56;31.67
66752;SHT31;53663;42.676;23.238;2024-02-23T11:19:06;18.45;35.03
66752;SHT31;53663;42.676;23.238;2024-02-23T11:21:37;18.79;34.71
66752;SHT31;53663;42.676;23.238;2024-02-23T11:24:03;18.48;35.48
66752;SHT31;53663;42.676;23.238;2024-02-23T11:26:29;18.91;34.11
66752;SHT31;53663;42.676;23.238;2024-02-23T11:28:55;18.22;35.05
66752;SHT31;53663;42.676;23.238;2024-02-23T11:31:24;17.97;36.01
66752;SHT31;53663;42.676;23.238;2024-02-23T11:33:53;17.63;36.76
66752;SHT31;53663;42.676;23.238;2024-02-23T11:36:22;18.32;35.97
66752;SHT31;53663;42.676;23.238;2024-02-23T11:38:48;18.81;34.55
66752;SHT31;53663;42.676;23.238;2024-02-23T11:41:13;18.02;35.99
66752;SHT31;53663;42.676;23.238;2024-02-23T11:43:39;17.30;37.97
66752;SHT31;53663;42.676;23.238;2024-02-23T11:46:04;17.60;36.70
66752;SHT31;53663;42.676;23.238;2024-02-23T11:48:30;17.56;37.49
66752;SHT31;53663;42.676;23.238;2024-02-23T11:50:55;17.53;36.78
66752;SHT31;53663;42.676;23.238;2024-02-23T11:53:21;17.27;37.36
66752;SHT31;53663;42.676;23.238;2024-02-23T11:55:47;16.94;37.86
66752;SHT31;53663;42.676;23.238;2024-02-23T11:58:13;17.46;36.65
66752;SHT31;53663;42.676;23.238;2024-02-23T12:00:39;18.38;35.90
66752;SHT31;53663;42.676;23.238;2024-02-23T12:03:05;18.12;35.05
66752;SHT31;53663;42.676;23.238;2024-02-23T12:05:31;18.06;36.05
66752;SHT31;53663;42.676;23.238;2024-02-23T12:07:56;19.00;34.95
66752;SHT31;53663;42.676;23.238;2024-02-23T12:10:23;18.94;34.64
66752;SHT31;53663;42.676;23.238;2024-02-23T12:12:50;19.38;34.69
66752;SHT31;53663;42.676;23.238;2024-02-23T12:15:16;18.28;34.30
66752;SHT31;53663;42.676;23.238;2024-02-23T12:17:50;17.81;36.28
66752;SHT31;53663;42.676;23.238;2024-02-23T12:20:16;17.77;36.19
66752;SHT31;53663;42.676;23.238;2024-02-23T12:22:41;17.98;35.86
66752;SHT31;53663;42.676;23.238;2024-02-23T12:25:07;18.39;35.29
66752;SHT31;53663;42.676;23.238;2024-02-23T12:27:32;18.21;35.46
66752;SHT31;53663;42.676;23.238;2024-02-23T12:29:58;18.69;34.02
66752;SHT31;53663;42.676;23.238;2024-02-23T12:32:24;18.38;34.57
66752;SHT31;53663;42.676;23.238;2024-02-23T12:34:50;18.28;34.62
66752;SHT31;53663;42.676;23.238;2024-02-23T12:37:15;18.00;34.97
66752;SHT31;53663;42.676;23.238;2024-02-23T12:39:44;18.18;35.12
66752;SHT31;53663;42.676;23.238;2024-02-23T12:42:09;18.31;36.12
66752;SHT31;53663;42.676;23.238;2024-02-23T12:44:35;18.83;34.62
66752;SHT31;53663;42.676;23.238;2024-02-23T12:47:00;18.42;33.91
66752;SHT31;53663;42.676;23.238;2024-02-23T12:49:26;18.49;34.55
66752;SHT31;53663;42.676;23.238;2024-02-23T12:51:51;18.89;33.26
66752;SHT31;53663;42.676;23.238;2024-02-23T12:54:17;18.38;34.20
66752;SHT31;53663;42.676;23.238;2024-02-23T12:56:42;19.39;33.87
66752;SHT31;53663;42.676;23.238;2024-02-23T12:59:08;19.32;34.30
66752;SHT31;53663;42.676;23.238;2024-02-23T13:01:34;20.55;32.22
66752;SHT31;53663;42.676;23.238;2024-02-23T13:04:03;21.03;29.52
66752;SHT31;53663;42.676;23.238;2024-02-23T13:06:28;21.30;28.94
66752;SHT31;53663;42.676;23.238;2024-02-23T13:08:54;21.84;28.46
66752;SHT31;53663;42.676;23.238;2024-02-23T13:11:19;21.92;28.17
66752;SHT31;53663;42.676;23.238;2024-02-23T13:13:44;22.13;27.81
66752;SHT31;53663;42.676;23.238;2024-02-23T13:16:10;20.23;31.27
66752;SHT31;53663;42.676;23.238;2024-02-23T13:18:35;20.41;30.41
66752;SHT31;53663;42.676;23.238;2024-02-23T13:21:01;21.27;30.17
66752;SHT31;53663;42.676;23.238;2024-02-23T13:23:26;20.78;30.44
66752;SHT31;53663;42.676;23.238;2024-02-23T13:25:52;20.09;30.99
66752;SHT31;53663;42.676;23.238;2024-02-23T13:28:17;20.44;31.54
66752;SHT31;53663;42.676;23.238;2024-02-23T13:30:42;21.19;29.92
66752;SHT31;53663;42.676;23.238;2024-02-23T13:33:10;21.26;29.96
66752;SHT31;53663;42.676;23.238;2024-02-23T13:35:36;20.65;30.88
66752;SHT31;53663;42.676;23.238;2024-02-23T13:38:01;20.89;30.54
66752;SHT31;53663;42.676;23.238;2024-02-23T13:40:30;21.10;30.44
66752;SHT31;53663;42.676;23.238;2024-02-23T13:42:56;21.16;29.93
66752;SHT31;53663;42.676;23.238;2024-02-23T13:45:22;21.34;30.40
66752;SHT31;53663;42.676;23.238;2024-02-23T13:47:59;22.87;29.14
66752;SHT31;53663;42.676;23.238;2024-02-23T13:50:25;21.55;28.52
66752;SHT31;53663;42.676;23.238;2024-02-23T13:52:50;19.45;32.19
66752;SHT31;53663;42.676;23.238;2024-02-23T13:55:16;19.25;32.70
66752;SHT31;53663;42.676;23.238;2024-02-23T13:57:41;19.15;32.81
66752;SHT31;53663;42.676;23.238;2024-02-23T14:00:07;19.96;32.60
66752;SHT31;53663;42.676;23.238;2024-02-23T14:02:38;20.58;31.18
66752;SHT31;53663;42.676;23.238;2024-02-23T14:05:05;20.96;31.01
66752;SHT31;53663;42.676;23.238;2024-02-23T14:07:34;18.00;34.51
66752;SHT31;53663;42.676;23.238;2024-02-23T14:10:00;16.65;36.57
66752;SHT31;53663;42.676;23.238;2024-02-23T14:12:27;16.85;36.74
66752;SHT31;53663;42.676;23.238;2024-02-23T14:14:53;16.71;36.66
66752;SHT31;53663;42.676;23.238;2024-02-23T14:17:18;16.99;36.68
66752;SHT31;53663;42.676;23.238;2024-02-23T14:19:43;16.31;37.03
66752;SHT31;53663;42.676;23.238;2024-02-23T14:22:09;16.17;37.72
66752;SHT31;53663;42.676;23.238;2024-02-23T14:24:35;16.34;37.90
66752;SHT31;53663;42.676;23.238;2024-02-23T14:27:00;16.63;37.57
66752;SHT31;53663;42.676;23.238;2024-02-23T14:29:26;15.73;38.68
66752;SHT31;53663;42.676;23.238;2024-02-23T14:31:52;15.50;39.41
66752;SHT31;53663;42.676;23.238;2024-02-23T14:34:17;15.34;39.75
66752;SHT31;53663;42.676;23.238;2024-02-23T14:36:43;15.32;39.67
66752;SHT31;53663;42.676;23.238;2024-02-23T14:39:09;15.48;39.62
66752;SHT31;53663;42.676;23.238;2024-02-23T14:41:35;15.17;39.52
66752;SHT31;53663;42.676;23.238;2024-02-23T14:44:01;15.03;40.67
66752;SHT31;53663;42.676;23.238;2024-02-23T14:46:26;15.10;41.07
66752;SHT31;53663;42.676;23.238;2024-02-23T14:48:51;14.90;41.42
66752;SHT31;53663;42.676;23.238;2024-02-23T14:51:18;14.86;41.61
66752;SHT31;53663;42.676;23.238;2024-02-23T14:53:43;15.00;41.16
66752;SHT31;53663;42.676;23.238;2024-02-23T14:56:08;14.94;41.33
66752;SHT31;53663;42.676;23.238;2024-02-23T14:58:34;14.82;41.68
66752;SHT31;53663;42.676;23.238;2024-02-23T15:00:59;14.93;41.95
66752;SHT31;53663;42.676;23.238;2024-02-23T15:03:25;14.86;41.68
66752;SHT31;53663;42.676;23.238;2024-02-23T15:05:51;14.63;42.09
66752;SHT31;53663;42.676;23.238;2024-02-23T15:08:16;14.75;42.57
66752;SHT31;53663;42.676;23.238;2024-02-23T15:10:41;14.73;42.24
66752;SHT31;53663;42.676;23.238;2024-02-23T15:13:07;14.71;42.60
66752;SHT31;53663;42.676;23.238;2024-02-23T15:15:32;14.55;43.36